Time;durP1;ratioP1;P1;durP2;ratioP2;P2;SDS_P1;SDS_P2;PMS_P1;PMS_P2;Temp;Humidity;BMP_temperature;BMP_pressure;BME280_temperature;BME280_humidity;BME280_pressure;Samples;Min_cycle;Max_cycle;Signal;HPM_P1;HPM_P2
2021/03/26 00:03:39;;;;;;;5.55;2.15;;;11.90;58.50;;;;;;2413253;56;21384;-82
2021/03/26 00:06:30;;;;;;;4.90;2.17;;;11.90;58.70;;;;;;2419749;56;20997;-82
2021/03/26 00:09:30;;;;;;;;;;;;;;;;;;;;;
2021/03/26 00:12:36;;;;;;;4.13;2.30;;;12.00;58.70;;;;;;2236706;57;21006;-82
2021/03/26 00:16:20;;;;;;;4.37;2.28;;;12.10;58.60;;;;;;2398086;56;21079;-82
2021/03/26 00:20:00;;;;;;;3.95;2.10;;;12.10;58.30;;;;;;2351253;57;21084;-82
2021/03/26 00:29:11;;;;;;;4.95;1.95;;;12.10;58.10;;;;;;2334097;57;21001;-82
2021/03/26 00:31:54;;;;;;;3.67;1.70;;;12.10;58.00;;;;;;2150760;58;21069;-82
2021/03/26 00:34:33;;;;;;;5.15;1.80;;;12.00;57.70;;;;;;2164177;57;21154;-81
2021/03/26 00:37:05;;;;;;;4.32;2.05;;;12.00;57.80;;;;;;2417117;56;21074;-80
2021/03/26 00:39:34;;;;;;;3.50;1.65;;;11.90;57.80;;;;;;2224295;56;21109;-82
2021/03/26 00:42:41;;;;;;;5.15;2.00;;;11.90;57.70;;;;;;2445646;55;20994;-82
2021/03/26 00:45:10;;;;;;;3.92;1.90;;;11.80;57.60;;;;;;2446712;56;21055;-81
2021/03/26 00:54:17;;;;;;;3.15;1.60;;;11.80;57.70;;;;;;2446822;56;21030;-81
2021/03/26 01:18:11;;;;;;;3.37;1.73;;;11.70;57.30;;;;;;2439436;56;21434;-81
2021/03/26 01:30:44;;;;;;;3.87;1.48;;;11.10;57.60;;;;;;2449817;55;20951;-81
2021/03/26 01:33:13;;;;;;;;;;;11.00;57.70;;;;;;2368845;56;21130;-81
2021/03/26 01:36:07;;;;;;;8.23;1.90;;;11.00;57.80;;;;;;2395405;56;20122;-81
2021/03/26 02:06:05;;;;;;;4.93;1.73;;;10.90;58.00;;;;;;2225267;57;21063;-81
2021/03/26 02:29:38;;;;;;;;;;;;;;;;;;;;;
2021/03/26 03:30:20;;;;;;;;;;;;;;;;;;;;;
2021/03/26 05:47:01;;;;;;;3.10;1.80;;;9.20;60.80;;;;;;2312165;58;21037;-81
2021/03/26 06:14:06;;;;;;;;;;;;;;;;;;;;;
2021/03/26 06:21:11;;;;;;;;;;;;;;;;;;;;;
2021/03/26 06:24:21;;;;;;;4.03;2.35;;;9.20;61.60;;;;;;2385260;57;21008;-81
2021/03/26 07:18:34;;;;;;;5.65;3.45;;;10.50;63.10;;;;;;2238423;57;21030;-82
2021/03/26 07:21:25;;;;;;;6.30;4.03;;;10.90;63.50;;;;;;2450130;55;20993;-83
2021/03/26 07:24:24;;;;;;;7.55;4.22;;;11.10;64.20;;;;;;2446442;56;21049;-82
2021/03/26 07:40:32;;;;;;;8.20;4.95;;;11.20;64.20;;;;;;2426046;55;20990;-81
2021/03/26 07:47:29;;;;;;;;;;;;;;;;;;;;;
2021/03/26 08:56:03;;;;;;;8.80;5.35;;;18.00;67.60;;;;;;2439339;56;21729;-82
2021/03/26 09:00:26;;;;;;;5.50;4.37;;;20.30;63.20;;;;;;2213543;57;21049;-82
2021/03/26 09:06:02;;;;;;;8.13;5.07;;;20.60;62.50;;;;;;2230885;57;20978;-82
2021/03/26 09:11:55;;;;;;;6.80;4.85;;;20.90;61.90;;;;;;2447329;56;21485;-81
2021/03/26 09:16:00;;;;;;;5.75;3.97;;;21.40;63.10;;;;;;2446461;56;20929;-82
2021/03/26 09:20:11;;;;;;;5.62;3.83;;;22.00;65.00;;;;;;2225129;56;22007;-81
2021/03/26 09:25:26;;;;;;;5.60;3.87;;;22.50;62.60;;;;;;2206011;57;21000;-81
2021/03/26 09:28:02;;;;;;;5.90;4.32;;;23.00;63.10;;;;;;2447281;56;20951;-83
2021/03/26 09:30:37;;;;;;;6.32;4.55;;;23.50;62.30;;;;;;2447223;56;21006;-82
2021/03/26 09:33:13;;;;;;;7.28;5.12;;;23.70;60.30;;;;;;2224858;57;21018;-82
2021/03/26 09:35:48;;;;;;;9.30;5.43;;;23.90;59.70;;;;;;2427293;56;20954;-81
2021/03/26 09:38:39;;;;;;;8.40;5.40;;;24.00;59.20;;;;;;2230285;57;20957;-82
2021/03/26 09:41:24;;;;;;;8.05;4.95;;;24.10;57.20;;;;;;2446311;56;20992;-83
2021/03/26 09:44:20;;;;;;;6.03;4.57;;;24.10;57.40;;;;;;2446612;56;21036;-84
2021/03/26 09:47:10;;;;;;;7.82;5.32;;;24.20;56.00;;;;;;2447011;56;20988;-83
2021/03/26 09:51:33;;;;;;;10.07;5.93;;;24.30;55.60;;;;;;2225890;57;21006;-81
2021/03/26 09:54:39;;;;;;;5.80;4.53;;;24.30;55.80;;;;;;2445704;56;21002;-81
2021/03/26 09:57:16;;;;;;;8.43;4.90;;;24.40;55.40;;;;;;2446417;56;21019;-82
2021/03/26 10:01:31;;;;;;;7.68;5.37;;;24.50;56.80;;;;;;2446829;56;20930;-83
2021/03/26 10:04:17;;;;;;;9.63;5.20;;;24.60;54.90;;;;;;2446257;56;21058;-82
2021/03/26 10:07:43;;;;;;;8.60;5.00;;;24.80;55.30;;;;;;2426412;56;20953;-82
2021/03/26 10:13:19;;;;;;;7.03;4.68;;;24.90;54.00;;;;;;2449193;55;20934;-81
2021/03/26 10:15:52;;;;;;;8.32;4.53;;;24.90;53.70;;;;;;2447130;56;20942;-83
2021/03/26 10:18:20;;;;;;;8.45;4.97;;;24.90;53.60;;;;;;2447016;56;20986;-83
2021/03/26 10:22:49;;;;;;;9.65;5.32;;;24.90;53.10;;;;;;2226241;57;21001;-83
2021/03/26 10:25:38;;;;;;;8.25;4.97;;;24.90;51.70;;;;;;2451410;56;20974;-83
2021/03/26 10:28:24;;;;;;;6.68;4.20;;;24.80;50.50;;;;;;2228464;57;21002;-81
2021/03/26 10:31:01;;;;;;;7.15;4.43;;;24.60;49.80;;;;;;2446260;56;21029;-83
2021/03/26 10:33:27;;;;;;;7.03;5.15;;;24.50;51.20;;;;;;2446752;56;21112;-83
2021/03/26 10:36:09;;;;;;;8.05;4.78;;;24.30;50.10;;;;;;2447291;55;21070;-82
2021/03/26 10:38:55;;;;;;;6.70;4.37;;;24.20;48.80;;;;;;2446882;56;20929;-83
2021/03/26 10:47:06;;;;;;;6.28;3.75;;;24.00;49.10;;;;;;2446558;56;21357;-81
2021/03/26 10:49:48;;;;;;;6.62;3.15;;;23.80;50.20;;;;;;2446295;56;20955;-81
2021/03/26 10:52:25;;;;;;;5.90;3.53;;;23.80;50.40;;;;;;2427115;56;20943;-82
2021/03/26 10:54:58;;;;;;;5.45;3.28;;;23.80;51.30;;;;;;2448454;56;21437;-83
2021/03/26 10:58:46;;;;;;;7.55;4.10;;;23.80;51.20;;;;;;2446498;56;20927;-81
2021/03/26 11:01:18;;;;;;;7.00;3.60;;;23.90;49.90;;;;;;2225286;57;21521;-83
2021/03/26 11:04:21;;;;;;;5.87;3.60;;;24.10;51.30;;;;;;2225412;57;20934;-82
2021/03/26 11:06:51;;;;;;;6.68;3.60;;;24.20;49.50;;;;;;2427290;56;21856;-82
2021/03/26 11:09:38;;;;;;;7.47;3.70;;;24.30;51.00;;;;;;2428250;56;20942;-82
2021/03/26 11:12:26;;;;;;;8.10;4.25;;;24.40;48.80;;;;;;2447696;56;20946;-82
2021/03/26 11:15:56;;;;;;;5.55;3.83;;;24.50;49.40;;;;;;2226935;57;20930;-83
2021/03/26 11:20:39;;;;;;;8.20;4.80;;;24.60;48.50;;;;;;2447036;56;20994;-83
2021/03/26 11:23:41;;;;;;;5.10;3.20;;;24.60;48.70;;;;;;2446140;56;21035;-82
2021/03/26 11:26:16;;;;;;;6.25;3.83;;;24.70;47.70;;;;;;2225318;57;21001;-82
2021/03/26 11:29:12;;;;;;;6.57;3.05;;;24.70;48.20;;;;;;2446484;56;20954;-82
2021/03/26 11:32:05;;;;;;;4.82;3.25;;;24.60;48.50;;;;;;2446947;56;21025;-84
2021/03/26 11:34:49;;;;;;;6.10;3.28;;;24.50;46.90;;;;;;2446348;56;20965;-83
2021/03/26 11:37:17;;;;;;;6.18;2.75;;;24.40;47.40;;;;;;2226730;57;20934;-81
2021/03/26 11:46:35;;;;;;;5.28;2.87;;;24.30;48.40;;;;;;2446814;56;20929;-83
2021/03/26 11:49:40;;;;;;;4.40;3.17;;;24.30;48.70;;;;;;2447376;56;20918;-82
2021/03/26 11:52:14;;;;;;;6.25;3.15;;;24.30;49.30;;;;;;2228736;57;21610;-81
2021/03/26 11:55:29;;;;;;;5.47;2.53;;;24.40;49.00;;;;;;2224159;57;20930;-82
2021/03/26 11:58:16;;;;;;;5.93;3.47;;;24.50;48.00;;;;;;2446347;56;20942;-82
2021/03/26 12:00:51;;;;;;;5.62;3.42;;;24.60;48.70;;;;;;2225583;57;21196;-82
2021/03/26 12:05:04;;;;;;;4.68;3.03;;;24.70;48.40;;;;;;2224879;57;20953;-82
2021/03/26 12:07:50;;;;;;;4.12;2.62;;;24.70;47.70;;;;;;2447563;56;20994;-82
2021/03/26 12:12:25;;;;;;;5.50;3.15;;;24.90;49.70;;;;;;2229435;56;21686;-81
2021/03/26 12:15:12;;;;;;;6.00;3.08;;;25.10;47.70;;;;;;2445973;56;20985;-83
2021/03/26 12:18:06;;;;;;;4.78;3.22;;;25.10;47.50;;;;;;2225052;56;20946;-82
2021/03/26 12:20:37;;;;;;;4.57;2.78;;;25.10;46.10;;;;;;2225735;57;20954;-82
2021/03/26 12:23:18;;;;;;;5.35;3.17;;;25.10;47.60;;;;;;2446988;56;21037;-83
2021/03/26 12:25:58;;;;;;;5.62;3.20;;;25.10;47.20;;;;;;2445770;56;20942;-81
2021/03/26 12:29:04;;;;;;;4.57;2.95;;;24.90;46.30;;;;;;2447054;56;20974;-81
2021/03/26 12:32:13;;;;;;;5.32;2.55;;;25.00;45.10;;;;;;2447010;56;20986;-81
2021/03/26 12:35:02;;;;;;;5.15;3.12;;;25.00;46.10;;;;;;2225512;57;21005;-81
2021/03/26 12:37:47;;;;;;;5.80;2.95;;;24.90;44.80;;;;;;2228907;57;20947;-83
2021/03/26 12:40:29;;;;;;;4.43;3.05;;;24.80;44.10;;;;;;2229475;57;20958;-81
2021/03/26 12:43:00;;;;;;;4.12;2.28;;;24.80;45.50;;;;;;2212657;57;20953;-81
2021/03/26 12:47:17;;;;;;;4.53;2.60;;;24.70;46.30;;;;;;2212947;57;20950;-81
2021/03/26 12:52:16;;;;;;;5.07;2.35;;;24.80;45.50;;;;;;2445959;56;20954;-83
2021/03/26 12:54:48;;;;;;;4.53;2.45;;;24.90;46.30;;;;;;2450891;55;21004;-83
2021/03/26 13:00:41;;;;;;;4.87;2.58;;;25.00;47.50;;;;;;2447567;56;21021;-82
2021/03/26 13:05:01;;;;;;;5.18;1.95;;;25.20;47.20;;;;;;2447291;56;21446;-83
2021/03/26 13:09:01;;;;;;;4.28;2.17;;;25.30;47.00;;;;;;2449227;56;20923;-81
2021/03/26 13:11:32;;;;;;;4.90;2.10;;;25.50;46.00;;;;;;2446487;56;20942;-83
2021/03/26 13:14:03;;;;;;;3.95;2.20;;;25.50;46.10;;;;;;2446750;56;21078;-82
2021/03/26 13:16:43;;;;;;;5.75;2.35;;;25.50;45.60;;;;;;2447661;56;20965;-83
2021/03/26 13:19:32;;;;;;;5.47;3.00;;;25.50;44.10;;;;;;2226062;57;21034;-82
2021/03/26 13:22:11;;;;;;;4.03;2.12;;;25.40;43.00;;;;;;2447276;56;21021;-83
2021/03/26 13:25:05;;;;;;;4.93;2.67;;;25.40;44.30;;;;;;2428841;56;20966;-82
2021/03/26 13:27:37;;;;;;;5.03;2.72;;;25.30;43.80;;;;;;2226390;57;20930;-83
2021/03/26 13:30:37;;;;;;;4.97;2.70;;;25.20;42.10;;;;;;2446847;56;21109;-82
2021/03/26 13:33:16;;;;;;;3.50;1.95;;;25.00;41.20;;;;;;2446629;56;21540;-81
2021/03/26 13:35:58;;;;;;;5.60;2.17;;;24.80;42.80;;;;;;2447808;56;20995;-82
2021/03/26 13:38:54;;;;;;;5.93;1.95;;;24.60;42.50;;;;;;2228340;57;20943;-83
2021/03/26 13:41:37;;;;;;;4.55;2.35;;;24.50;41.70;;;;;;2447067;56;20938;-83
2021/03/26 13:44:29;;;;;;;4.35;2.50;;;24.40;43.20;;;;;;2225658;57;21432;-82
2021/03/26 13:47:03;;;;;;;;;;;24.30;42.40;;;;;;2451150;56;21571;-83
2021/03/26 13:49:32;;;;;;;5.70;2.22;;;24.20;42.80;;;;;;2447581;56;20087;-82
2021/03/26 13:52:10;;;;;;;5.60;2.53;;;24.10;43.40;;;;;;2446946;56;20946;-82
2021/03/26 13:54:43;;;;;;;5.07;2.62;;;23.90;42.70;;;;;;2229324;57;20961;-82
2021/03/26 13:57:21;;;;;;;5.15;2.62;;;23.80;43.60;;;;;;2216518;57;20957;-83
2021/03/26 14:00:16;;;;;;;3.60;1.90;;;23.70;42.50;;;;;;2447380;56;20922;-83
2021/03/26 14:03:29;;;;;;;5.75;2.92;;;23.60;42.60;;;;;;2447725;56;20934;-83
2021/03/26 14:07:36;;;;;;;6.57;3.33;;;23.60;41.80;;;;;;2447728;56;20942;-83
2021/03/26 14:10:40;;;;;;;4.80;2.40;;;23.40;41.80;;;;;;2226787;57;20991;-84
2021/03/26 14:13:40;;;;;;;4.18;2.10;;;23.40;41.90;;;;;;2414923;56;21840;-82
2021/03/26 14:22:42;;;;;;;4.80;2.72;;;23.30;42.50;;;;;;2207981;57;20966;-82
2021/03/26 14:27:26;;;;;;;5.95;2.95;;;23.30;43.60;;;;;;2447844;56;21006;-84
2021/03/26 14:31:33;;;;;;;4.40;2.05;;;23.40;43.60;;;;;;2447141;56;20926;-82
2021/03/26 14:34:18;;;;;;;5.47;2.28;;;23.30;44.20;;;;;;2447926;56;20997;-84
2021/03/26 14:36:58;;;;;;;4.05;2.22;;;23.40;43.70;;;;;;2448101;56;21475;-82
2021/03/26 14:39:29;;;;;;;5.25;2.60;;;23.30;42.50;;;;;;2230556;57;21419;-82
2021/03/26 14:52:36;;;;;;;5.23;2.33;;;23.20;42.10;;;;;;2447601;56;21010;-82
2021/03/26 14:56:40;;;;;;;4.28;1.90;;;23.10;41.70;;;;;;2225472;56;20913;-83
2021/03/26 14:59:22;;;;;;;4.70;2.00;;;23.00;42.10;;;;;;2444675;56;21028;-82
2021/03/26 15:01:49;;;;;;;4.35;2.05;;;23.00;41.10;;;;;;2229312;56;21750;-83
2021/03/26 15:04:44;;;;;;;5.35;1.77;;;22.90;42.10;;;;;;2446869;56;21003;-83
2021/03/26 15:07:21;;;;;;;6.05;2.30;;;22.90;41.80;;;;;;2453005;55;21026;-85
2021/03/26 15:10:37;;;;;;;3.95;1.85;;;22.90;41.80;;;;;;2446959;56;20925;-82
2021/03/26 15:13:22;;;;;;;4.00;2.00;;;22.90;41.60;;;;;;2446323;56;20951;-83
2021/03/26 15:16:02;;;;;;;3.95;1.60;;;22.90;42.20;;;;;;2447556;56;20961;-85
2021/03/26 15:19:20;;;;;;;4.03;1.75;;;23.00;42.60;;;;;;2226957;57;20966;-82
2021/03/26 15:28:59;;;;;;;3.92;1.90;;;23.00;41.40;;;;;;2447921;55;20999;-84
2021/03/26 15:32:03;;;;;;;5.53;2.60;;;23.00;40.80;;;;;;2228348;57;21783;-82
2021/03/26 15:34:56;;;;;;;3.67;2.05;;;23.00;41.80;;;;;;2447418;56;21012;-83
2021/03/26 15:38:36;;;;;;;4.65;2.00;;;22.90;41.10;;;;;;2448358;56;21081;-82
2021/03/26 15:44:31;;;;;;;7.20;1.70;;;22.80;42.10;;;;;;2440416;56;21450;-82
2021/03/26 15:50:34;;;;;;;5.57;2.20;;;22.80;42.60;;;;;;2447840;56;20976;-82
2021/03/26 15:53:05;;;;;;;3.83;1.55;;;22.70;41.70;;;;;;2448125;56;21033;-82
2021/03/26 15:58:20;;;;;;;5.45;2.37;;;22.60;42.50;;;;;;2448966;56;21061;-82
2021/03/26 16:04:06;;;;;;;4.65;2.20;;;22.50;42.30;;;;;;2229145;57;21131;-82
2021/03/26 16:10:18;;;;;;;3.40;1.60;;;22.40;42.50;;;;;;2448081;56;21642;-82
2021/03/26 16:16:13;;;;;;;4.47;2.03;;;22.30;42.00;;;;;;2413583;56;21139;-83
2021/03/26 16:19:22;;;;;;;3.95;1.70;;;22.10;41.20;;;;;;2226445;57;20962;-83
2021/03/26 16:25:56;;;;;;;4.68;1.77;;;21.90;41.30;;;;;;2446594;56;21050;-82
2021/03/26 16:50:41;;;;;;;2.65;1.20;;;21.60;42.00;;;;;;2229915;57;20987;-82
2021/03/26 16:53:57;;;;;;;3.92;2.10;;;21.30;43.90;;;;;;2443227;55;21051;-82
2021/03/26 17:22:17;;;;;;;3.28;1.30;;;20.90;43.30;;;;;;2200750;57;21046;-83
2021/03/26 17:26:23;;;;;;;3.78;1.55;;;20.80;44.80;;;;;;2449035;55;21089;-81
2021/03/26 17:32:02;;;;;;;4.20;1.42;;;20.60;44.70;;;;;;2211286;58;20946;-82
2021/03/26 17:42:05;;;;;;;2.22;1.12;;;20.50;45.30;;;;;;2226387;57;21861;-82
2021/03/26 17:47:13;;;;;;;3.45;1.30;;;20.40;45.10;;;;;;2448027;55;21880;-82
2021/03/26 17:52:37;;;;;;;2.80;1.20;;;20.20;45.70;;;;;;2446529;56;21433;-82
2021/03/26 17:59:22;;;;;;;5.10;2.78;;;19.90;46.10;;;;;;2449607;56;21080;-81
2021/03/26 18:02:12;;;;;;;7.45;3.03;;;19.80;46.20;;;;;;2448777;55;20954;-82
2021/03/26 18:08:52;;;;;;;4.65;2.28;;;19.70;46.30;;;;;;2228842;56;21887;-82
2021/03/26 18:12:01;;;;;;;4.62;2.47;;;19.50;46.40;;;;;;2443933;56;20973;-82
2021/03/26 19:57:18;;;;;;;15.68;6.45;;;17.90;48.40;;;;;;2395666;56;21031;-83
2021/03/26 20:05:59;;;;;;;12.70;6.68;;;17.60;49.00;;;;;;2224083;57;21014;-82
2021/03/26 20:28:51;;;;;;;5.70;2.92;;;17.50;49.50;;;;;;2424580;56;20984;-82
2021/03/26 20:32:03;;;;;;;6.40;3.12;;;17.50;49.40;;;;;;2426811;56;21053;-82
2021/03/26 20:35:12;;;;;;;6.37;2.80;;;17.40;49.30;;;;;;2417278;56;21514;-82
2021/03/26 20:38:19;;;;;;;6.25;2.90;;;17.40;49.40;;;;;;2447633;56;21054;-82
2021/03/26 20:57:12;;;;;;;8.07;3.22;;;17.30;49.40;;;;;;2388831;56;21925;-82
2021/03/26 21:01:26;;;;;;;4.65;2.33;;;17.30;49.40;;;;;;2399091;56;21055;-83
2021/03/26 21:07:01;;;;;;;5.22;2.83;;;17.20;50.10;;;;;;2229421;57;21017;-82
2021/03/26 21:09:54;;;;;;;4.37;2.35;;;17.10;50.20;;;;;;2234598;57;20957;-83
2021/03/26 21:21:19;;;;;;;9.77;5.47;;;17.10;50.30;;;;;;2230596;56;21018;-82
2021/03/26 21:24:17;;;;;;;7.35;3.58;;;17.00;50.20;;;;;;2446940;55;21895;-82
2021/03/26 21:26:48;;;;;;;6.97;3.72;;;16.90;50.30;;;;;;2445036;56;21013;-82
2021/03/26 21:30:17;;;;;;;6.37;3.05;;;16.90;50.40;;;;;;2447988;56;20935;-82
2021/03/26 21:40:07;;;;;;;5.20;3.12;;;16.90;50.30;;;;;;2448152;56;21001;-82
2021/03/26 21:44:30;;;;;;;8.65;3.47;;;16.80;49.90;;;;;;2217053;57;20949;-82
2021/03/26 21:50:06;;;;;;;7.25;3.62;;;16.80;50.40;;;;;;2218580;56;20958;-82
2021/03/26 21:55:22;;;;;;;7.32;3.05;;;16.90;51.20;;;;;;2205397;57;21036;-82
2021/03/26 21:58:10;;;;;;;;;;;16.90;50.90;;;;;;2236519;56;20949;-82
2021/03/26 22:03:38;;;;;;;9.07;3.90;;;16.90;50.70;;;;;;2447697;56;20074;-81
2021/03/26 22:06:21;;;;;;;8.95;3.90;;;16.90;50.70;;;;;;2447662;56;21039;-82
2021/03/26 22:11:31;;;;;;;5.70;3.50;;;16.90;51.00;;;;;;2230868;57;21845;-81
2021/03/26 22:14:15;;;;;;;5.53;3.37;;;16.90;50.80;;;;;;2232691;56;21838;-83
2021/03/26 22:17:20;;;;;;;5.05;3.05;;;17.00;51.20;;;;;;2448678;55;21043;-82
2021/03/26 22:21:51;;;;;;;7.00;4.37;;;17.00;51.30;;;;;;2230249;57;20998;-81
2021/03/26 22:24:48;;;;;;;8.85;5.32;;;16.90;51.10;;;;;;2446001;55;21370;-81
2021/03/26 22:27:44;;;;;;;8.35;5.18;;;16.90;51.10;;;;;;2445703;56;21334;-83
2021/03/26 22:33:23;;;;;;;10.18;6.00;;;16.70;50.90;;;;;;2233544;57;21003;-82
2021/03/26 22:36:41;;;;;;;11.68;6.20;;;16.50;51.00;;;;;;2444110;56;20953;-83
2021/03/26 22:39:44;;;;;;;12.82;7.10;;;16.30;51.50;;;;;;2448785;55;20918;-82
2021/03/26 23:29:59;;;;;;;5.07;2.90;;;15.10;53.80;;;;;;2301116;59;20986;-82
